sensor_id;sensor_type;location;lat;lon;timestamp;P1;durP1;ratioP1;P2;durP2;ratioP2
41201;SDS011;26936;50.524;8.684;2022-12-07T00:03:40;29.17;;;13.70;;
41201;SDS011;26936;50.524;8.684;2022-12-07T00:06:07;33.30;;;14.95;;
41201;SDS011;26936;50.524;8.684;2022-12-07T00:08:34;31.52;;;15.35;;
41201;SDS011;26936;50.524;8.684;2022-12-07T00:11:07;29.77;;;15.20;;
41201;SDS011;26936;50.524;8.684;2022-12-07T00:13:37;31.75;;;14.50;;
41201;SDS011;26936;50.524;8.684;2022-12-07T00:18:30;26.88;;;13.77;;
41201;SDS011;26936;50.524;8.684;2022-12-07T00:21:02;28.50;;;14.23;;
41201;SDS011;26936;50.524;8.684;2022-12-07T00:23:29;27.95;;;14.30;;
41201;SDS011;26936;50.524;8.684;2022-12-07T00:25:55;26.70;;;13.85;;
41201;SDS011;26936;50.524;8.684;2022-12-07T00:28:20;28.35;;;14.32;;
41201;SDS011;26936;50.524;8.684;2022-12-07T00:30:45;28.58;;;14.02;;
41201;SDS011;26936;50.524;8.684;2022-12-07T00:33:11;31.43;;;14.47;;
41201;SDS011;26936;50.524;8.684;2022-12-07T00:35:36;27.13;;;14.07;;
41201;SDS011;26936;50.524;8.684;2022-12-07T00:38:01;30.63;;;14.70;;
41201;SDS011;26936;50.524;8.684;2022-12-07T00:40:26;28.10;;;14.65;;
41201;SDS011;26936;50.524;8.684;2022-12-07T00:42:52;28.45;;;15.02;;
41201;SDS011;26936;50.524;8.684;2022-12-07T00:45:17;30.70;;;15.65;;
41201;SDS011;26936;50.524;8.684;2022-12-07T00:47:42;27.00;;;14.15;;
41201;SDS011;26936;50.524;8.684;2022-12-07T00:50:08;28.20;;;14.45;;
41201;SDS011;26936;50.524;8.684;2022-12-07T00:52:33;29.27;;;14.80;;
41201;SDS011;26936;50.524;8.684;2022-12-07T00:54:58;29.23;;;14.32;;
41201;SDS011;26936;50.524;8.684;2022-12-07T00:57:24;30.03;;;14.73;;
41201;SDS011;26936;50.524;8.684;2022-12-07T00:59:49;31.53;;;15.63;;
41201;SDS011;26936;50.524;8.684;2022-12-07T01:02:14;29.10;;;14.68;;
41201;SDS011;26936;50.524;8.684;2022-12-07T01:04:39;28.52;;;15.50;;
41201;SDS011;26936;50.524;8.684;2022-12-07T01:07:05;28.48;;;14.43;;
41201;SDS011;26936;50.524;8.684;2022-12-07T01:09:30;26.60;;;13.53;;
41201;SDS011;26936;50.524;8.684;2022-12-07T01:11:55;29.23;;;14.25;;
41201;SDS011;26936;50.524;8.684;2022-12-07T01:14:20;27.13;;;13.67;;
41201;SDS011;26936;50.524;8.684;2022-12-07T01:16:46;28.02;;;14.18;;
41201;SDS011;26936;50.524;8.684;2022-12-07T01:19:11;26.15;;;13.10;;
41201;SDS011;26936;50.524;8.684;2022-12-07T01:21:36;25.03;;;12.77;;
41201;SDS011;26936;50.524;8.684;2022-12-07T01:24:04;23.15;;;12.43;;
41201;SDS011;26936;50.524;8.684;2022-12-07T01:26:31;22.50;;;12.63;;
41201;SDS011;26936;50.524;8.684;2022-12-07T01:28:56;22.63;;;11.15;;
41201;SDS011;26936;50.524;8.684;2022-12-07T01:31:24;22.67;;;11.80;;
41201;SDS011;26936;50.524;8.684;2022-12-07T01:33:51;24.10;;;11.43;;
41201;SDS011;26936;50.524;8.684;2022-12-07T01:36:39;22.13;;;11.20;;
41201;SDS011;26936;50.524;8.684;2022-12-07T01:39:05;20.45;;;10.27;;
41201;SDS011;26936;50.524;8.684;2022-12-07T01:41:33;21.08;;;10.10;;
41201;SDS011;26936;50.524;8.684;2022-12-07T01:46:39;21.02;;;9.90;;
41201;SDS011;26936;50.524;8.684;2022-12-07T01:49:06;21.80;;;10.48;;
41201;SDS011;26936;50.524;8.684;2022-12-07T01:51:35;18.80;;;9.75;;
41201;SDS011;26936;50.524;8.684;2022-12-07T01:54:04;22.08;;;10.80;;
41201;SDS011;26936;50.524;8.684;2022-12-07T01:56:29;19.60;;;10.10;;
41201;SDS011;26936;50.524;8.684;2022-12-07T01:58:57;17.92;;;9.43;;
41201;SDS011;26936;50.524;8.684;2022-12-07T02:01:25;18.55;;;9.60;;
41201;SDS011;26936;50.524;8.684;2022-12-07T02:03:50;16.63;;;8.80;;
41201;SDS011;26936;50.524;8.684;2022-12-07T02:06:17;18.55;;;9.15;;
41201;SDS011;26936;50.524;8.684;2022-12-07T02:08:45;20.42;;;9.52;;
41201;SDS011;26936;50.524;8.684;2022-12-07T02:11:11;17.98;;;8.95;;
41201;SDS011;26936;50.524;8.684;2022-12-07T02:13:38;16.75;;;8.18;;
41201;SDS011;26936;50.524;8.684;2022-12-07T02:16:25;17.17;;;8.65;;
41201;SDS011;26936;50.524;8.684;2022-12-07T02:28:04;17.33;;;8.65;;
41201;SDS011;26936;50.524;8.684;2022-12-07T02:30:33;16.23;;;8.70;;
41201;SDS011;26936;50.524;8.684;2022-12-07T02:33:04;15.07;;;8.23;;
41201;SDS011;26936;50.524;8.684;2022-12-07T02:41:10;13.70;;;7.88;;
41201;SDS011;26936;50.524;8.684;2022-12-07T02:43:39;16.92;;;8.30;;
41201;SDS011;26936;50.524;8.684;2022-12-07T02:46:11;16.33;;;8.50;;
41201;SDS011;26936;50.524;8.684;2022-12-07T02:48:41;15.43;;;8.25;;
41201;SDS011;26936;50.524;8.684;2022-12-07T02:51:08;16.27;;;8.07;;
41201;SDS011;26936;50.524;8.684;2022-12-07T02:53:34;14.50;;;7.97;;
41201;SDS011;26936;50.524;8.684;2022-12-07T02:56:03;15.70;;;8.77;;
41201;SDS011;26936;50.524;8.684;2022-12-07T03:15:56;18.45;;;9.35;;
41201;SDS011;26936;50.524;8.684;2022-12-07T03:18:27;18.23;;;9.80;;
41201;SDS011;26936;50.524;8.684;2022-12-07T03:20:57;15.50;;;9.70;;
41201;SDS011;26936;50.524;8.684;2022-12-07T03:23:26;21.40;;;9.80;;
41201;SDS011;26936;50.524;8.684;2022-12-07T03:25:54;18.45;;;9.52;;
41201;SDS011;26936;50.524;8.684;2022-12-07T03:28:22;15.77;;;9.02;;
41201;SDS011;26936;50.524;8.684;2022-12-07T03:31:00;18.90;;;9.55;;
41201;SDS011;26936;50.524;8.684;2022-12-07T03:33:33;17.58;;;8.73;;
41201;SDS011;26936;50.524;8.684;2022-12-07T03:36:06;20.50;;;10.18;;
41201;SDS011;26936;50.524;8.684;2022-12-07T03:38:44;19.65;;;9.82;;
41201;SDS011;26936;50.524;8.684;2022-12-07T03:41:14;16.50;;;9.10;;
41201;SDS011;26936;50.524;8.684;2022-12-07T03:43:47;19.45;;;9.23;;
41201;SDS011;26936;50.524;8.684;2022-12-07T03:46:20;19.08;;;9.82;;
41201;SDS011;26936;50.524;8.684;2022-12-07T03:54:19;17.27;;;9.02;;
41201;SDS011;26936;50.524;8.684;2022-12-07T03:56:49;20.05;;;9.77;;
41201;SDS011;26936;50.524;8.684;2022-12-07T03:59:17;17.40;;;9.40;;
41201;SDS011;26936;50.524;8.684;2022-12-07T04:01:44;18.55;;;9.60;;
41201;SDS011;26936;50.524;8.684;2022-12-07T04:04:16;15.88;;;8.55;;
41201;SDS011;26936;50.524;8.684;2022-12-07T04:06:41;16.52;;;8.93;;
41201;SDS011;26936;50.524;8.684;2022-12-07T04:09:07;15.20;;;8.70;;
41201;SDS011;26936;50.524;8.684;2022-12-07T04:11:32;15.87;;;9.10;;
41201;SDS011;26936;50.524;8.684;2022-12-07T04:13:57;15.50;;;8.70;;
41201;SDS011;26936;50.524;8.684;2022-12-07T04:19:06;17.43;;;9.23;;
41201;SDS011;26936;50.524;8.684;2022-12-07T04:21:31;16.33;;;8.80;;
41201;SDS011;26936;50.524;8.684;2022-12-07T04:23:56;16.20;;;9.63;;
41201;SDS011;26936;50.524;8.684;2022-12-07T04:26:22;14.87;;;9.10;;
41201;SDS011;26936;50.524;8.684;2022-12-07T04:28:47;18.53;;;9.90;;
41201;SDS011;26936;50.524;8.684;2022-12-07T04:31:12;15.73;;;8.37;;
41201;SDS011;26936;50.524;8.684;2022-12-07T04:33:37;18.85;;;9.98;;
41201;SDS011;26936;50.524;8.684;2022-12-07T04:36:03;16.93;;;9.53;;
41201;SDS011;26936;50.524;8.684;2022-12-07T04:38:28;16.60;;;9.48;;
41201;SDS011;26936;50.524;8.684;2022-12-07T04:40:54;18.23;;;9.95;;
41201;SDS011;26936;50.524;8.684;2022-12-07T04:43:19;21.87;;;10.83;;
41201;SDS011;26936;50.524;8.684;2022-12-07T04:45:47;22.63;;;11.85;;
41201;SDS011;26936;50.524;8.684;2022-12-07T04:48:13;20.75;;;11.48;;
41201;SDS011;26936;50.524;8.684;2022-12-07T04:50:38;18.67;;;10.48;;
41201;SDS011;26936;50.524;8.684;2022-12-07T04:53:04;19.90;;;10.27;;
41201;SDS011;26936;50.524;8.684;2022-12-07T04:55:29;23.10;;;11.13;;
41201;SDS011;26936;50.524;8.684;2022-12-07T04:57:54;19.97;;;10.87;;
41201;SDS011;26936;50.524;8.684;2022-12-07T05:00:20;20.43;;;11.10;;
41201;SDS011;26936;50.524;8.684;2022-12-07T05:02:45;19.65;;;10.65;;
41201;SDS011;26936;50.524;8.684;2022-12-07T05:05:10;24.80;;;11.80;;
41201;SDS011;26936;50.524;8.684;2022-12-07T05:07:35;18.83;;;10.27;;
41201;SDS011;26936;50.524;8.684;2022-12-07T05:10:01;21.25;;;11.18;;
41201;SDS011;26936;50.524;8.684;2022-12-07T05:12:26;19.57;;;11.17;;
41201;SDS011;26936;50.524;8.684;2022-12-07T05:14:51;19.37;;;10.63;;
41201;SDS011;26936;50.524;8.684;2022-12-07T05:17:16;21.30;;;11.30;;
41201;SDS011;26936;50.524;8.684;2022-12-07T05:19:42;19.67;;;11.05;;
41201;SDS011;26936;50.524;8.684;2022-12-07T05:22:07;21.27;;;11.30;;
41201;SDS011;26936;50.524;8.684;2022-12-07T05:24:32;22.90;;;10.98;;
41201;SDS011;26936;50.524;8.684;2022-12-07T05:26:57;19.15;;;10.43;;
41201;SDS011;26936;50.524;8.684;2022-12-07T05:29:23;21.15;;;10.80;;
41201;SDS011;26936;50.524;8.684;2022-12-07T05:31:48;16.80;;;9.23;;
41201;SDS011;26936;50.524;8.684;2022-12-07T05:34:13;19.90;;;10.85;;
41201;SDS011;26936;50.524;8.684;2022-12-07T05:36:39;19.45;;;10.45;;
41201;SDS011;26936;50.524;8.684;2022-12-07T05:39:04;19.33;;;10.68;;
41201;SDS011;26936;50.524;8.684;2022-12-07T05:41:30;18.75;;;10.68;;
41201;SDS011;26936;50.524;8.684;2022-12-07T05:44:14;24.23;;;11.27;;
41201;SDS011;26936;50.524;8.684;2022-12-07T05:46:39;20.45;;;10.75;;
41201;SDS011;26936;50.524;8.684;2022-12-07T05:49:05;22.05;;;11.82;;
41201;SDS011;26936;50.524;8.684;2022-12-07T05:51:30;22.80;;;12.02;;
41201;SDS011;26936;50.524;8.684;2022-12-07T05:53:55;23.10;;;11.73;;
41201;SDS011;26936;50.524;8.684;2022-12-07T05:56:21;21.98;;;11.45;;
41201;SDS011;26936;50.524;8.684;2022-12-07T05:58:46;23.15;;;11.82;;
41201;SDS011;26936;50.524;8.684;2022-12-07T06:01:30;22.58;;;11.10;;
41201;SDS011;26936;50.524;8.684;2022-12-07T06:03:55;23.40;;;12.07;;
41201;SDS011;26936;50.524;8.684;2022-12-07T06:06:21;26.00;;;11.97;;
41201;SDS011;26936;50.524;8.684;2022-12-07T06:08:46;21.35;;;11.25;;
41201;SDS011;26936;50.524;8.684;2022-12-07T06:11:11;20.08;;;11.10;;
41201;SDS011;26936;50.524;8.684;2022-12-07T06:13:55;22.83;;;11.38;;
41201;SDS011;26936;50.524;8.684;2022-12-07T06:16:21;19.70;;;11.20;;
41201;SDS011;26936;50.524;8.684;2022-12-07T06:18:46;22.85;;;12.23;;
41201;SDS011;26936;50.524;8.684;2022-12-07T06:21:11;23.70;;;12.15;;
41201;SDS011;26936;50.524;8.684;2022-12-07T06:23:37;25.02;;;12.40;;
41201;SDS011;26936;50.524;8.684;2022-12-07T06:26:02;22.50;;;11.27;;
41201;SDS011;26936;50.524;8.684;2022-12-07T06:28:27;23.00;;;11.40;;
41201;SDS011;26936;50.524;8.684;2022-12-07T06:30:56;22.47;;;11.70;;
41201;SDS011;26936;50.524;8.684;2022-12-07T06:33:25;21.95;;;11.43;;
41201;SDS011;26936;50.524;8.684;2022-12-07T06:35:51;19.80;;;10.68;;
41201;SDS011;26936;50.524;8.684;2022-12-07T06:38:16;18.48;;;10.52;;
41201;SDS011;26936;50.524;8.684;2022-12-07T06:40:41;21.27;;;11.95;;
41201;SDS011;26936;50.524;8.684;2022-12-07T06:43:07;24.40;;;11.10;;
41201;SDS011;26936;50.524;8.684;2022-12-07T06:45:32;19.42;;;10.93;;
41201;SDS011;26936;50.524;8.684;2022-12-07T06:47:58;20.33;;;10.80;;
41201;SDS011;26936;50.524;8.684;2022-12-07T06:50:23;18.77;;;10.88;;
41201;SDS011;26936;50.524;8.684;2022-12-07T06:52:48;21.33;;;10.93;;
41201;SDS011;26936;50.524;8.684;2022-12-07T06:55:13;22.10;;;11.00;;
41201;SDS011;26936;50.524;8.684;2022-12-07T06:57:39;19.05;;;10.20;;
41201;SDS011;26936;50.524;8.684;2022-12-07T07:00:04;20.73;;;10.00;;
41201;SDS011;26936;50.524;8.684;2022-12-07T07:02:30;17.88;;;10.25;;
41201;SDS011;26936;50.524;8.684;2022-12-07T07:04:55;17.60;;;9.73;;
41201;SDS011;26936;50.524;8.684;2022-12-07T07:07:20;16.93;;;8.87;;
41201;SDS011;26936;50.524;8.684;2022-12-07T07:09:46;20.42;;;10.02;;
41201;SDS011;26936;50.524;8.684;2022-12-07T07:12:11;16.17;;;9.88;;
41201;SDS011;26936;50.524;8.684;2022-12-07T07:14:36;18.97;;;11.07;;
41201;SDS011;26936;50.524;8.684;2022-12-07T07:17:02;21.20;;;10.48;;
41201;SDS011;26936;50.524;8.684;2022-12-07T07:19:27;21.80;;;9.98;;
41201;SDS011;26936;50.524;8.684;2022-12-07T07:21:52;19.15;;;10.75;;
41201;SDS011;26936;50.524;8.684;2022-12-07T07:24:17;25.67;;;11.13;;
41201;SDS011;26936;50.524;8.684;2022-12-07T07:26:43;21.15;;;10.88;;
41201;SDS011;26936;50.524;8.684;2022-12-07T07:29:08;21.37;;;12.17;;
41201;SDS011;26936;50.524;8.684;2022-12-07T07:31:33;23.47;;;11.30;;
41201;SDS011;26936;50.524;8.684;2022-12-07T07:34:00;21.95;;;10.85;;
41201;SDS011;26936;50.524;8.684;2022-12-07T07:36:26;24.73;;;11.80;;
41201;SDS011;26936;50.524;8.684;2022-12-07T07:38:51;23.33;;;11.37;;
41201;SDS011;26936;50.524;8.684;2022-12-07T07:41:16;20.67;;;10.50;;
41201;SDS011;26936;50.524;8.684;2022-12-07T07:43:41;22.90;;;11.40;;
41201;SDS011;26936;50.524;8.684;2022-12-07T07:46:06;25.27;;;11.37;;
41201;SDS011;26936;50.524;8.684;2022-12-07T07:48:32;20.80;;;11.37;;
41201;SDS011;26936;50.524;8.684;2022-12-07T07:50:57;19.63;;;10.05;;
41201;SDS011;26936;50.524;8.684;2022-12-07T07:53:22;18.80;;;10.40;;
41201;SDS011;26936;50.524;8.684;2022-12-07T07:55:51;24.08;;;11.60;;
41201;SDS011;26936;50.524;8.684;2022-12-07T07:58:18;24.55;;;11.68;;
41201;SDS011;26936;50.524;8.684;2022-12-07T08:00:43;23.02;;;11.63;;
41201;SDS011;26936;50.524;8.684;2022-12-07T08:03:08;23.30;;;12.53;;
41201;SDS011;26936;50.524;8.684;2022-12-07T08:05:34;26.23;;;12.93;;
41201;SDS011;26936;50.524;8.684;2022-12-07T08:08:01;23.20;;;11.80;;
41201;SDS011;26936;50.524;8.684;2022-12-07T08:10:26;23.65;;;10.70;;
41201;SDS011;26936;50.524;8.684;2022-12-07T08:12:51;23.88;;;10.60;;
41201;SDS011;26936;50.524;8.684;2022-12-07T08:18:01;19.33;;;9.80;;
41201;SDS011;26936;50.524;8.684;2022-12-07T08:20:26;19.30;;;9.75;;
41201;SDS011;26936;50.524;8.684;2022-12-07T08:22:51;19.75;;;10.23;;
41201;SDS011;26936;50.524;8.684;2022-12-07T08:25:17;19.93;;;10.47;;
41201;SDS011;26936;50.524;8.684;2022-12-07T08:27:43;23.38;;;10.30;;
41201;SDS011;26936;50.524;8.684;2022-12-07T08:30:08;20.90;;;9.98;;
41201;SDS011;26936;50.524;8.684;2022-12-07T08:32:33;19.02;;;10.45;;
41201;SDS011;26936;50.524;8.684;2022-12-07T08:34:59;18.63;;;9.47;;
41201;SDS011;26936;50.524;8.684;2022-12-07T08:37:24;12.40;;;8.17;;
41201;SDS011;26936;50.524;8.684;2022-12-07T08:39:49;14.27;;;8.63;;
41201;SDS011;26936;50.524;8.684;2022-12-07T08:42:14;13.67;;;7.53;;
41201;SDS011;26936;50.524;8.684;2022-12-07T08:44:40;11.40;;;7.50;;
41201;SDS011;26936;50.524;8.684;2022-12-07T08:47:05;11.40;;;7.50;;
41201;SDS011;26936;50.524;8.684;2022-12-07T08:49:39;14.10;;;8.20;;
41201;SDS011;26936;50.524;8.684;2022-12-07T08:52:08;12.68;;;7.43;;
41201;SDS011;26936;50.524;8.684;2022-12-07T08:54:34;14.40;;;7.05;;
41201;SDS011;26936;50.524;8.684;2022-12-07T08:57:01;11.07;;;6.80;;
41201;SDS011;26936;50.524;8.684;2022-12-07T08:59:27;10.43;;;7.00;;
41201;SDS011;26936;50.524;8.684;2022-12-07T09:01:53;10.07;;;6.32;;
41201;SDS011;26936;50.524;8.684;2022-12-07T09:04:19;11.77;;;6.05;;
41201;SDS011;26936;50.524;8.684;2022-12-07T09:06:45;9.40;;;5.78;;
41201;SDS011;26936;50.524;8.684;2022-12-07T09:09:11;8.35;;;5.78;;
41201;SDS011;26936;50.524;8.684;2022-12-07T09:11:38;11.93;;;6.65;;
41201;SDS011;26936;50.524;8.684;2022-12-07T09:14:04;8.98;;;5.93;;
41201;SDS011;26936;50.524;8.684;2022-12-07T09:16:29;9.90;;;5.50;;
41201;SDS011;26936;50.524;8.684;2022-12-07T09:18:55;10.32;;;4.97;;
41201;SDS011;26936;50.524;8.684;2022-12-07T09:21:20;8.65;;;5.63;;
41201;SDS011;26936;50.524;8.684;2022-12-07T09:23:46;10.10;;;5.40;;
41201;SDS011;26936;50.524;8.684;2022-12-07T09:26:11;8.73;;;4.90;;
41201;SDS011;26936;50.524;8.684;2022-12-07T09:28:37;9.25;;;5.28;;
41201;SDS011;26936;50.524;8.684;2022-12-07T09:31:02;8.30;;;5.43;;
41201;SDS011;26936;50.524;8.684;2022-12-07T09:33:28;9.55;;;5.40;;
41201;SDS011;26936;50.524;8.684;2022-12-07T09:35:53;8.53;;;5.70;;
41201;SDS011;26936;50.524;8.684;2022-12-07T09:38:19;11.20;;;5.57;;
41201;SDS011;26936;50.524;8.684;2022-12-07T09:40:45;12.40;;;7.18;;
41201;SDS011;26936;50.524;8.684;2022-12-07T09:43:12;14.02;;;7.55;;
41201;SDS011;26936;50.524;8.684;2022-12-07T09:45:40;14.85;;;7.97;;
41201;SDS011;26936;50.524;8.684;2022-12-07T09:48:08;13.38;;;7.60;;
41201;SDS011;26936;50.524;8.684;2022-12-07T09:50:42;15.55;;;8.00;;
41201;SDS011;26936;50.524;8.684;2022-12-07T09:53:09;17.02;;;7.75;;
41201;SDS011;26936;50.524;8.684;2022-12-07T09:55:40;15.82;;;7.93;;
41201;SDS011;26936;50.524;8.684;2022-12-07T09:58:11;13.07;;;7.43;;
41201;SDS011;26936;50.524;8.684;2022-12-07T10:00:45;12.43;;;6.88;;
41201;SDS011;26936;50.524;8.684;2022-12-07T10:03:10;14.67;;;6.00;;
41201;SDS011;26936;50.524;8.684;2022-12-07T10:05:38;9.68;;;5.68;;
41201;SDS011;26936;50.524;8.684;2022-12-07T10:08:08;10.32;;;5.00;;
41201;SDS011;26936;50.524;8.684;2022-12-07T10:10:36;7.85;;;4.90;;
41201;SDS011;26936;50.524;8.684;2022-12-07T10:13:14;9.85;;;4.90;;
41201;SDS011;26936;50.524;8.684;2022-12-07T10:20:49;12.80;;;5.13;;
41201;SDS011;26936;50.524;8.684;2022-12-07T10:23:26;7.93;;;4.50;;
41201;SDS011;26936;50.524;8.684;2022-12-07T10:25:51;8.10;;;4.95;;
41201;SDS011;26936;50.524;8.684;2022-12-07T10:28:19;11.10;;;4.60;;
41201;SDS011;26936;50.524;8.684;2022-12-07T10:30:50;9.52;;;5.00;;
41201;SDS011;26936;50.524;8.684;2022-12-07T10:33:37;9.23;;;4.95;;
41201;SDS011;26936;50.524;8.684;2022-12-07T10:36:17;10.60;;;5.22;;
41201;SDS011;26936;50.524;8.684;2022-12-07T10:38:45;11.07;;;4.90;;
41201;SDS011;26936;50.524;8.684;2022-12-07T10:41:12;10.68;;;5.53;;
41201;SDS011;26936;50.524;8.684;2022-12-07T10:43:38;11.15;;;5.20;;
41201;SDS011;26936;50.524;8.684;2022-12-07T10:54:54;6.93;;;4.22;;
41201;SDS011;26936;50.524;8.684;2022-12-07T10:57:26;10.00;;;4.47;;
41201;SDS011;26936;50.524;8.684;2022-12-07T11:00:09;7.97;;;4.32;;
41201;SDS011;26936;50.524;8.684;2022-12-07T11:02:49;6.88;;;4.43;;
41201;SDS011;26936;50.524;8.684;2022-12-07T11:08:35;7.68;;;4.13;;
41201;SDS011;26936;50.524;8.684;2022-12-07T11:14:31;8.20;;;4.35;;
41201;SDS011;26936;50.524;8.684;2022-12-07T11:20:00;7.97;;;4.57;;
41201;SDS011;26936;50.524;8.684;2022-12-07T11:22:37;6.38;;;4.00;;
41201;SDS011;26936;50.524;8.684;2022-12-07T11:27:43;7.73;;;4.60;;
41201;SDS011;26936;50.524;8.684;2022-12-07T11:30:20;7.00;;;4.32;;
41201;SDS011;26936;50.524;8.684;2022-12-07T11:37:57;7.40;;;3.33;;
41201;SDS011;26936;50.524;8.684;2022-12-07T11:40:28;6.40;;;3.10;;
41201;SDS011;26936;50.524;8.684;2022-12-07T11:45:32;4.90;;;2.77;;
41201;SDS011;26936;50.524;8.684;2022-12-07T11:48:14;4.88;;;2.92;;
41201;SDS011;26936;50.524;8.684;2022-12-07T11:50:47;5.38;;;2.83;;
41201;SDS011;26936;50.524;8.684;2022-12-07T11:56:10;9.20;;;3.00;;
41201;SDS011;26936;50.524;8.684;2022-12-07T12:03:45;3.75;;;1.95;;
41201;SDS011;26936;50.524;8.684;2022-12-07T12:06:13;6.72;;;1.60;;
41201;SDS011;26936;50.524;8.684;2022-12-07T12:08:46;4.28;;;2.10;;
41201;SDS011;26936;50.524;8.684;2022-12-07T12:11:32;5.15;;;1.70;;
41201;SDS011;26936;50.524;8.684;2022-12-07T12:14:10;6.60;;;1.80;;
41201;SDS011;26936;50.524;8.684;2022-12-07T12:17:01;3.45;;;1.75;;
41201;SDS011;26936;50.524;8.684;2022-12-07T12:19:57;2.42;;;1.60;;
41201;SDS011;26936;50.524;8.684;2022-12-07T12:22:44;6.57;;;1.63;;
41201;SDS011;26936;50.524;8.684;2022-12-07T12:25:34;6.03;;;2.22;;
41201;SDS011;26936;50.524;8.684;2022-12-07T12:28:04;5.55;;;2.03;;
41201;SDS011;26936;50.524;8.684;2022-12-07T12:35:40;3.97;;;2.10;;
41201;SDS011;26936;50.524;8.684;2022-12-07T12:40:58;6.32;;;1.98;;
41201;SDS011;26936;50.524;8.684;2022-12-07T12:43:41;5.38;;;2.22;;
41201;SDS011;26936;50.524;8.684;2022-12-07T12:54:23;6.05;;;1.85;;
41201;SDS011;26936;50.524;8.684;2022-12-07T13:02:22;3.35;;;2.00;;
41201;SDS011;26936;50.524;8.684;2022-12-07T13:04:58;8.88;;;2.30;;
41201;SDS011;26936;50.524;8.684;2022-12-07T13:10:54;4.82;;;2.28;;
41201;SDS011;26936;50.524;8.684;2022-12-07T13:15:38;10.23;;;2.92;;
41201;SDS011;26936;50.524;8.684;2022-12-07T13:23:18;5.75;;;2.35;;
41201;SDS011;26936;50.524;8.684;2022-12-07T13:25:59;9.80;;;3.70;;
41201;SDS011;26936;50.524;8.684;2022-12-07T13:28:51;7.88;;;3.92;;
41201;SDS011;26936;50.524;8.684;2022-12-07T13:31:36;10.77;;;3.10;;
41201;SDS011;26936;50.524;8.684;2022-12-07T13:34:05;7.88;;;3.65;;
41201;SDS011;26936;50.524;8.684;2022-12-07T13:36:57;7.15;;;2.42;;
41201;SDS011;26936;50.524;8.684;2022-12-07T13:39:27;6.15;;;2.55;;
41201;SDS011;26936;50.524;8.684;2022-12-07T13:41:58;7.82;;;2.53;;
41201;SDS011;26936;50.524;8.684;2022-12-07T13:44:25;4.85;;;3.08;;
41201;SDS011;26936;50.524;8.684;2022-12-07T13:49:25;7.47;;;2.95;;
41201;SDS011;26936;50.524;8.684;2022-12-07T13:51:55;8.15;;;3.40;;
41201;SDS011;26936;50.524;8.684;2022-12-07T13:54:44;7.32;;;2.90;;
41201;SDS011;26936;50.524;8.684;2022-12-07T13:57:11;3.47;;;1.80;;
41201;SDS011;26936;50.524;8.684;2022-12-07T13:59:36;4.45;;;2.13;;
41201;SDS011;26936;50.524;8.684;2022-12-07T14:02:16;4.95;;;2.00;;
41201;SDS011;26936;50.524;8.684;2022-12-07T14:04:44;4.93;;;1.80;;
41201;SDS011;26936;50.524;8.684;2022-12-07T14:07:18;4.68;;;1.98;;
41201;SDS011;26936;50.524;8.684;2022-12-07T14:09:55;8.77;;;2.17;;
41201;SDS011;26936;50.524;8.684;2022-12-07T14:12:23;7.90;;;2.40;;
41201;SDS011;26936;50.524;8.684;2022-12-07T14:14:50;4.28;;;2.13;;
41201;SDS011;26936;50.524;8.684;2022-12-07T14:17:18;7.95;;;3.42;;
41201;SDS011;26936;50.524;8.684;2022-12-07T14:22:24;11.02;;;3.35;;
41201;SDS011;26936;50.524;8.684;2022-12-07T14:25:26;6.72;;;3.05;;
41201;SDS011;26936;50.524;8.684;2022-12-07T14:30:26;6.53;;;2.65;;
41201;SDS011;26936;50.524;8.684;2022-12-07T14:32:54;6.20;;;3.30;;
41201;SDS011;26936;50.524;8.684;2022-12-07T14:35:22;6.75;;;3.30;;
41201;SDS011;26936;50.524;8.684;2022-12-07T14:37:48;8.35;;;3.05;;
41201;SDS011;26936;50.524;8.684;2022-12-07T14:40:15;6.55;;;3.10;;
41201;SDS011;26936;50.524;8.684;2022-12-07T14:42:45;7.63;;;2.75;;
41201;SDS011;26936;50.524;8.684;2022-12-07T14:45:16;7.88;;;4.13;;
41201;SDS011;26936;50.524;8.684;2022-12-07T14:47:44;8.77;;;3.50;;
41201;SDS011;26936;50.524;8.684;2022-12-07T14:50:13;6.13;;;3.13;;
41201;SDS011;26936;50.524;8.684;2022-12-07T14:52:42;9.25;;;4.22;;
41201;SDS011;26936;50.524;8.684;2022-12-07T14:57:49;6.93;;;3.55;;
41201;SDS011;26936;50.524;8.684;2022-12-07T15:00:15;7.78;;;3.72;;
41201;SDS011;26936;50.524;8.684;2022-12-07T15:02:42;10.60;;;3.38;;
41201;SDS011;26936;50.524;8.684;2022-12-07T15:05:08;9.43;;;4.00;;
41201;SDS011;26936;50.524;8.684;2022-12-07T15:07:34;7.38;;;3.42;;
41201;SDS011;26936;50.524;8.684;2022-12-07T15:09:59;6.65;;;3.08;;
41201;SDS011;26936;50.524;8.684;2022-12-07T15:12:24;7.07;;;3.10;;
41201;SDS011;26936;50.524;8.684;2022-12-07T15:14:49;8.00;;;2.97;;
41201;SDS011;26936;50.524;8.684;2022-12-07T15:17:15;41.00;;;17.48;;
41201;SDS011;26936;50.524;8.684;2022-12-07T15:19:40;18.20;;;9.43;;
41201;SDS011;26936;50.524;8.684;2022-12-07T15:22:05;101.65;;;45.55;;
41201;SDS011;26936;50.524;8.684;2022-12-07T15:24:31;76.28;;;31.77;;
41201;SDS011;26936;50.524;8.684;2022-12-07T15:26:56;20.95;;;10.13;;
41201;SDS011;26936;50.524;8.684;2022-12-07T15:29:21;10.07;;;5.20;;
41201;SDS011;26936;50.524;8.684;2022-12-07T15:31:48;6.05;;;2.50;;
41201;SDS011;26936;50.524;8.684;2022-12-07T15:34:14;4.85;;;2.00;;
41201;SDS011;26936;50.524;8.684;2022-12-07T15:36:39;7.03;;;2.53;;
41201;SDS011;26936;50.524;8.684;2022-12-07T15:39:04;4.93;;;2.15;;
41201;SDS011;26936;50.524;8.684;2022-12-07T15:41:30;4.43;;;1.90;;
41201;SDS011;26936;50.524;8.684;2022-12-07T15:43:55;4.65;;;1.67;;
41201;SDS011;26936;50.524;8.684;2022-12-07T15:46:40;4.10;;;1.50;;
41201;SDS011;26936;50.524;8.684;2022-12-07T15:49:08;4.50;;;1.30;;
41201;SDS011;26936;50.524;8.684;2022-12-07T15:51:36;1.95;;;1.40;;
41201;SDS011;26936;50.524;8.684;2022-12-07T15:54:01;4.10;;;1.60;;
41201;SDS011;26936;50.524;8.684;2022-12-07T15:56:26;2.97;;;1.05;;
41201;SDS011;26936;50.524;8.684;2022-12-07T15:58:52;4.03;;;1.27;;
41201;SDS011;26936;50.524;8.684;2022-12-07T16:01:17;10.38;;;3.05;;
41201;SDS011;26936;50.524;8.684;2022-12-07T16:03:44;3.83;;;2.10;;
41201;SDS011;26936;50.524;8.684;2022-12-07T16:06:10;4.25;;;2.42;;
41201;SDS011;26936;50.524;8.684;2022-12-07T16:08:36;4.53;;;2.28;;
41201;SDS011;26936;50.524;8.684;2022-12-07T16:11:05;6.43;;;2.70;;
41201;SDS011;26936;50.524;8.684;2022-12-07T16:13:31;9.10;;;4.93;;
41201;SDS011;26936;50.524;8.684;2022-12-07T16:16:01;5.72;;;3.10;;
41201;SDS011;26936;50.524;8.684;2022-12-07T16:18:28;5.07;;;3.42;;
41201;SDS011;26936;50.524;8.684;2022-12-07T16:20:53;6.32;;;3.60;;
41201;SDS011;26936;50.524;8.684;2022-12-07T16:23:19;5.53;;;2.30;;
41201;SDS011;26936;50.524;8.684;2022-12-07T16:25:44;6.35;;;2.45;;
41201;SDS011;26936;50.524;8.684;2022-12-07T16:28:09;7.00;;;1.80;;
41201;SDS011;26936;50.524;8.684;2022-12-07T16:30:34;3.67;;;1.65;;
41201;SDS011;26936;50.524;8.684;2022-12-07T16:33:00;4.68;;;1.85;;
41201;SDS011;26936;50.524;8.684;2022-12-07T16:35:25;5.03;;;1.80;;
41201;SDS011;26936;50.524;8.684;2022-12-07T16:37:50;5.03;;;1.80;;
41201;SDS011;26936;50.524;8.684;2022-12-07T16:40:16;6.90;;;2.33;;
41201;SDS011;26936;50.524;8.684;2022-12-07T16:42:41;5.18;;;2.50;;
41201;SDS011;26936;50.524;8.684;2022-12-07T16:45:06;4.53;;;2.38;;
41201;SDS011;26936;50.524;8.684;2022-12-07T16:47:32;5.75;;;2.70;;
41201;SDS011;26936;50.524;8.684;2022-12-07T16:49:57;5.83;;;3.17;;
41201;SDS011;26936;50.524;8.684;2022-12-07T16:52:22;12.47;;;5.13;;
41201;SDS011;26936;50.524;8.684;2022-12-07T16:54:48;16.97;;;11.47;;